createdAt,value
2019-02-27T00:03:33.000Z,33.916
2019-02-27T00:13:33.000Z,33.946
2019-02-27T00:23:33.000Z,33.942
2019-02-27T00:33:33.000Z,33.991
2019-02-27T00:43:33.000Z,33.835
2019-02-27T00:53:33.000Z,33.929
2019-02-27T01:03:33.000Z,33.958
2019-02-27T01:13:33.000Z,34.008
2019-02-27T01:23:33.000Z,33.994
2019-02-27T01:33:33.000Z,33.979
2019-02-27T01:43:33.000Z,33.964
2019-02-27T01:53:33.000Z,33.971
2019-02-27T02:03:34.000Z,33.947
2019-02-27T02:13:33.000Z,33.878
2019-02-27T02:23:33.000Z,33.81
2019-02-27T02:33:33.000Z,33.861
2019-02-27T02:43:33.000Z,33.814
2019-02-27T02:53:33.000Z,33.735
2019-02-27T03:03:33.000Z,33.765
2019-02-27T03:13:33.000Z,33.773
2019-02-27T03:23:33.000Z,33.758
2019-02-27T03:33:34.000Z,33.788
2019-02-27T03:43:34.000Z,33.806
2019-02-27T03:53:34.000Z,33.74
2019-02-27T04:03:34.000Z,33.823
2019-02-27T04:13:34.000Z,33.702
2019-02-27T04:23:34.000Z,33.678
2019-02-27T04:33:34.000Z,33.804
2019-02-27T04:43:34.000Z,33.694
2019-02-27T04:53:34.000Z,33.724
2019-02-27T05:03:34.000Z,33.592
2019-02-27T05:13:34.000Z,33.472
2019-02-27T05:23:34.000Z,33.32
2019-02-27T05:33:34.000Z,33.232
2019-02-27T05:43:34.000Z,33.133
2019-02-27T05:53:34.000Z,33.035
2019-02-27T06:03:34.000Z,32.916
2019-02-27T06:13:34.000Z,32.807
2019-02-27T06:23:34.000Z,32.795
2019-02-27T06:33:34.000Z,32.72
2019-02-27T06:43:34.000Z,31.988
2019-02-27T06:53:34.000Z,31.644
2019-02-27T07:03:34.000Z,31.403
2019-02-27T07:13:34.000Z,31.337
2019-02-27T07:23:35.000Z,31.486
2019-02-27T07:33:34.000Z,31.724
2019-02-27T07:43:34.000Z,31.792
2019-02-27T07:53:34.000Z,31.687
2019-02-27T08:03:34.000Z,32.074
2019-02-27T08:13:34.000Z,33.581
2019-02-27T08:23:34.000Z,33.353
2019-02-27T08:33:34.000Z,33.133
2019-02-27T08:43:34.000Z,32.915
2019-02-27T08:53:34.000Z,32.784
2019-02-27T09:03:34.000Z,32.701
2019-02-27T09:13:34.000Z,32.595
2019-02-27T09:23:34.000Z,32.361
2019-02-27T09:33:34.000Z,31.974
2019-02-27T09:43:35.000Z,31.568
2019-02-27T09:53:34.000Z,31.159
2019-02-27T10:03:34.000Z,30.818
2019-02-27T10:13:34.000Z,30.414
2019-02-27T10:23:34.000Z,30.171
2019-02-27T10:33:34.000Z,29.841
2019-02-27T10:43:34.000Z,29.729
2019-02-27T10:53:34.000Z,29.553
2019-02-27T11:03:34.000Z,29.439
2019-02-27T11:13:34.000Z,29.304
2019-02-27T11:23:34.000Z,29.092
2019-02-27T11:33:34.000Z,29.053
2019-02-27T11:43:34.000Z,29.048
2019-02-27T11:53:35.000Z,29.074
2019-02-27T12:13:37.000Z,29.048
2019-02-27T12:23:39.000Z,29.126
2019-02-27T12:33:35.000Z,29.227
2019-02-27T12:43:35.000Z,29.347
2019-02-27T12:53:35.000Z,29.436
2019-02-27T13:03:35.000Z,29.61
2019-02-27T13:13:35.000Z,29.836
2019-02-27T13:23:35.000Z,29.989
2019-02-27T13:33:35.000Z,29.951
2019-02-27T13:43:35.000Z,30.249
2019-02-27T13:53:35.000Z,30.255
2019-02-27T14:03:35.000Z,30.431
2019-02-27T14:13:35.000Z,30.692
2019-02-27T14:23:35.000Z,30.809
2019-02-27T14:33:35.000Z,31.003
2019-02-27T14:43:35.000Z,31.197
2019-02-27T14:53:35.000Z,31.259
2019-02-27T15:03:35.000Z,31.463
2019-02-27T15:13:39.000Z,31.69
2019-02-27T15:23:35.000Z,31.875
2019-02-27T15:33:35.000Z,31.968
2019-02-27T15:43:35.000Z,32.084
2019-02-27T15:53:35.000Z,32.158
2019-02-27T16:03:35.000Z,32.35
2019-02-27T16:13:35.000Z,32.305
2019-02-27T16:23:35.000Z,32.62
2019-02-27T16:33:35.000Z,32.95
2019-02-27T16:43:35.000Z,33.13
2019-02-27T16:53:35.000Z,33.195
2019-02-27T17:03:35.000Z,33.333
2019-02-27T17:13:35.000Z,33.527
2019-02-27T17:23:35.000Z,34.483
2019-02-27T17:33:35.000Z,36.039
2019-02-27T17:43:35.000Z,36.928
2019-02-27T17:53:35.000Z,37.026
2019-02-27T18:03:35.000Z,36.97
2019-02-27T18:13:36.000Z,36.886
2019-02-27T18:23:35.000Z,36.801
2019-02-27T18:33:35.000Z,36.786
2019-02-27T18:43:36.000Z,36.706
2019-02-27T18:53:35.000Z,36.69
2019-02-27T19:03:36.000Z,36.815
2019-02-27T19:13:36.000Z,36.997
2019-02-27T19:23:35.000Z,37.114
2019-02-27T19:33:35.000Z,37.134
2019-02-27T19:43:35.000Z,37.176
2019-02-27T19:53:36.000Z,37.291
2019-02-27T20:03:36.000Z,37.193
2019-02-27T20:13:36.000Z,37.32
2019-02-27T20:23:36.000Z,37.166
2019-02-27T20:33:36.000Z,37.415
2019-02-27T20:43:36.000Z,37.142
2019-02-27T20:53:39.000Z,37.349
2019-02-27T21:03:39.000Z,37.367
2019-02-27T21:13:36.000Z,37.228
2019-02-27T21:23:36.000Z,37.424
2019-02-27T21:33:36.000Z,37.595
2019-02-27T21:53:36.000Z,38.115
2019-02-27T22:03:37.000Z,38.166
2019-02-27T22:13:36.000Z,38.281
2019-02-27T22:23:36.000Z,38.426
2019-02-27T22:33:36.000Z,38.301
2019-02-27T22:43:37.000Z,38.241
2019-02-27T22:53:36.000Z,38.311
2019-02-27T23:03:36.000Z,38.293
2019-02-27T23:13:36.000Z,38.31
2019-02-27T23:23:40.000Z,38.35
2019-02-27T23:33:36.000Z,38.356
2019-02-27T23:43:36.000Z,38.425
2019-02-27T23:53:36.000Z,38.43
